Time;durP1;ratioP1;P1;durP2;ratioP2;P2;SDS_P1;SDS_P2;PMS_P1;PMS_P2;Temp;Humidity;BMP_temperature;BMP_pressure;BME280_temperature;BME280_humidity;BME280_pressure;Samples;Min_cycle;Max_cycle;Signal;HPM_P1;HPM_P2
2021/08/19 00:01:55;;;;;;;0.10;0.10;;;15.10;99.90;;;;;;5103378;28;20203;-75
2021/08/19 00:04:21;;;;;;;0.20;0.20;;;15.10;99.90;;;;;;5092129;28;20171;-75
2021/08/19 00:06:47;;;;;;;0.20;0.20;;;15.20;99.90;;;;;;5110370;28;20230;-75
2021/08/19 00:09:13;;;;;;;0.85;0.50;;;15.40;99.90;;;;;;5110690;28;20167;-76
2021/08/19 00:11:38;;;;;;;0.25;0.20;;;15.60;99.90;;;;;;5092715;28;20271;-75
2021/08/19 00:14:04;;;;;;;0.47;0.47;;;15.70;99.90;;;;;;5110390;28;20155;-76
2021/08/19 00:16:30;;;;;;;0.30;0.30;;;15.50;99.90;;;;;;5104115;28;20171;-76
2021/08/19 00:18:56;;;;;;;0.47;0.47;;;15.50;99.90;;;;;;5130809;28;20155;-75
2021/08/19 00:21:22;;;;;;;0.65;0.57;;;15.50;99.90;;;;;;5130394;28;20537;-75
2021/08/19 00:23:48;;;;;;;0.10;0.10;;;15.60;99.90;;;;;;5130669;28;20146;-76
2021/08/19 00:26:14;;;;;;;0.25;0.25;;;15.60;99.90;;;;;;5112195;28;20162;-76
2021/08/19 00:28:40;;;;;;;0.20;0.20;;;15.50;99.90;;;;;;5111982;28;20599;-76
2021/08/19 00:31:06;;;;;;;0.10;0.10;;;15.40;99.90;;;;;;5112008;28;20190;-76
2021/08/19 00:33:32;;;;;;;0.40;0.40;;;15.50;99.90;;;;;;5130365;28;20202;-75
2021/08/19 00:35:57;;;;;;;1.50;0.50;;;15.80;99.90;;;;;;5130301;28;20180;-75
2021/08/19 00:38:23;;;;;;;0.45;0.45;;;15.70;99.90;;;;;;5130421;28;20155;-76
2021/08/19 00:40:50;;;;;;;0.35;0.35;;;15.80;99.90;;;;;;5130541;28;20159;-76
2021/08/19 00:43:15;;;;;;;0.10;0.10;;;15.50;99.90;;;;;;5130202;28;20186;-76
2021/08/19 00:45:41;;;;;;;0.38;0.20;;;15.50;99.90;;;;;;5130646;28;20238;-76
2021/08/19 00:48:07;;;;;;;0.10;0.10;;;15.30;99.90;;;;;;5108315;28;20215;-75
2021/08/19 00:50:34;;;;;;;2.45;1.10;;;15.10;99.90;;;;;;5091475;28;20175;-75
2021/08/19 00:53:00;;;;;;;0.10;0.10;;;15.00;99.90;;;;;;5109533;28;20202;-75
2021/08/19 00:55:28;;;;;;;0.73;0.70;;;15.00;99.90;;;;;;5091965;28;20175;-75
2021/08/19 00:57:57;;;;;;;0.40;0.40;;;14.90;99.90;;;;;;5109807;28;20179;-75
2021/08/19 01:00:24;;;;;;;0.20;0.20;;;15.10;99.90;;;;;;5105794;28;20183;-75
2021/08/19 01:02:54;;;;;;;0.22;0.22;;;15.30;99.90;;;;;;5056630;28;20262;-76
2021/08/19 01:05:26;;;;;;;0.40;0.40;;;15.60;99.90;;;;;;5051599;28;20176;-75
2021/08/19 01:07:52;;;;;;;0.55;0.55;;;16.00;99.90;;;;;;5069403;28;20191;-75
2021/08/19 01:10:18;;;;;;;0.10;0.10;;;15.80;99.90;;;;;;5068938;28;20161;-75
2021/08/19 01:12:46;;;;;;;0.38;0.38;;;15.20;99.90;;;;;;5067831;28;20222;-75
2021/08/19 01:15:13;;;;;;;0.73;0.45;;;15.00;99.90;;;;;;5070862;28;20231;-75
2021/08/19 01:17:39;;;;;;;0.73;0.73;;;14.90;99.90;;;;;;5091061;28;20177;-75
2021/08/19 01:20:07;;;;;;;0.43;0.43;;;15.10;99.90;;;;;;5091412;28;20183;-76
2021/08/19 01:22:34;;;;;;;0.30;0.30;;;15.50;99.90;;;;;;5091134;28;20195;-76
2021/08/19 01:25:00;;;;;;;0.20;0.20;;;15.60;99.90;;;;;;5111405;28;20183;-76
2021/08/19 01:27:28;;;;;;;0.10;0.10;;;15.60;99.90;;;;;;5111348;28;20189;-76
2021/08/19 01:29:54;;;;;;;0.55;0.55;;;15.40;99.90;;;;;;5110575;28;20156;-76
2021/08/19 01:32:22;;;;;;;0.22;0.22;;;15.50;99.90;;;;;;5090737;28;20272;-75
2021/08/19 01:34:51;;;;;;;0.65;0.65;;;15.40;99.90;;;;;;5090771;28;20179;-76
2021/08/19 01:37:17;;;;;;;1.08;0.50;;;15.50;99.90;;;;;;5109329;28;20238;-75
2021/08/19 01:39:43;;;;;;;0.35;0.35;;;15.70;99.90;;;;;;5090864;28;20195;-76
2021/08/19 01:42:09;;;;;;;0.68;0.50;;;15.50;99.90;;;;;;5090806;28;20191;-76
2021/08/19 01:44:35;;;;;;;0.70;0.70;;;15.50;99.90;;;;;;5108951;28;20508;-75
2021/08/19 01:47:03;;;;;;;0.40;0.40;;;15.60;99.90;;;;;;5090746;28;20199;-76
2021/08/19 01:49:30;;;;;;;1.55;1.45;;;15.60;99.90;;;;;;5123580;28;20270;-76
2021/08/19 01:52:03;;;;;;;0.00;0.00;;;15.30;99.90;;;;;;5129195;28;20194;-76
2021/08/19 01:54:29;;;;;;;0.10;0.10;;;14.80;99.90;;;;;;5129270;28;20147;-76
2021/08/19 01:56:56;;;;;;;1.25;1.02;;;14.60;99.90;;;;;;5110914;28;20173;-76
2021/08/19 01:59:25;;;;;;;0.10;0.10;;;14.90;99.90;;;;;;5127541;28;20186;-75
2021/08/19 02:01:51;;;;;;;0.40;0.40;;;15.10;99.90;;;;;;5119607;28;20174;-76
2021/08/19 02:04:17;;;;;;;0.93;0.93;;;14.90;99.90;;;;;;5090590;28;20194;-76
2021/08/19 02:06:43;;;;;;;0.10;0.10;;;14.60;99.90;;;;;;5108678;28;20164;-75
2021/08/19 02:09:08;;;;;;;1.20;1.10;;;14.40;99.90;;;;;;5090259;28;20195;-74
2021/08/19 02:11:34;;;;;;;0.20;0.20;;;14.30;99.90;;;;;;5108745;28;20160;-74
2021/08/19 02:14:00;;;;;;;0.20;0.20;;;14.20;99.90;;;;;;5108747;28;20172;-75
2021/08/19 02:16:26;;;;;;;0.35;0.35;;;14.20;99.90;;;;;;5101677;28;20189;-74
2021/08/19 02:18:52;;;;;;;0.40;0.40;;;14.20;99.90;;;;;;5128935;28;20154;-76
2021/08/19 02:21:18;;;;;;;0.40;0.40;;;14.40;99.90;;;;;;5129856;28;20180;-75
2021/08/19 02:23:44;;;;;;;0.30;0.30;;;14.90;99.90;;;;;;5114695;28;20186;-75
2021/08/19 02:26:10;;;;;;;0.10;0.10;;;15.00;99.90;;;;;;5132887;28;20159;-75
2021/08/19 02:28:36;;;;;;;0.70;0.70;;;15.00;99.90;;;;;;5132637;28;20218;-75
2021/08/19 02:31:02;;;;;;;1.13;1.08;;;14.60;99.90;;;;;;5132662;28;20151;-75
2021/08/19 02:33:28;;;;;;;0.10;0.10;;;14.40;99.90;;;;;;5132719;28;20182;-78
2021/08/19 02:35:54;;;;;;;0.20;0.20;;;14.40;99.90;;;;;;5132724;28;20211;-75
2021/08/19 02:38:19;;;;;;;0.08;0.08;;;14.40;99.90;;;;;;5132659;28;20162;-76
2021/08/19 02:40:46;;;;;;;0.63;0.63;;;14.40;99.90;;;;;;5132828;28;20651;-78
2021/08/19 02:43:12;;;;;;;0.10;0.10;;;14.90;99.90;;;;;;5114171;28;20249;-76
2021/08/19 02:45:38;;;;;;;0.50;0.50;;;15.00;99.90;;;;;;5132539;28;20159;-76
2021/08/19 02:48:04;;;;;;;0.90;0.88;;;15.00;99.90;;;;;;5129268;28;20222;-76
2021/08/19 02:50:30;;;;;;;0.68;0.68;;;14.80;99.90;;;;;;5111837;28;20202;-75
2021/08/19 02:52:57;;;;;;;12.90;0.90;;;14.80;99.90;;;;;;5111797;28;20179;-77
2021/08/19 02:55:23;;;;;;;0.28;0.28;;;14.90;99.90;;;;;;5111934;28;20163;-74
2021/08/19 02:57:49;;;;;;;0.28;0.28;;;15.10;99.90;;;;;;5111666;28;20202;-78
2021/08/19 03:00:15;;;;;;;1.00;0.75;;;15.30;99.90;;;;;;5111670;28;20191;-75
2021/08/19 03:02:42;;;;;;;0.47;0.47;;;15.50;99.90;;;;;;5094960;28;20186;-77
2021/08/19 03:05:08;;;;;;;0.40;0.40;;;15.70;99.90;;;;;;5073100;28;20167;-75
2021/08/19 03:07:34;;;;;;;0.60;0.60;;;15.90;99.90;;;;;;5073195;28;20172;-77
2021/08/19 03:10:00;;;;;;;0.10;0.10;;;15.80;99.90;;;;;;5073025;28;20195;-78
2021/08/19 03:12:26;;;;;;;0.47;0.47;;;15.80;99.90;;;;;;5091029;28;20584;-74
2021/08/19 03:14:53;;;;;;;0.85;0.55;;;15.80;99.90;;;;;;5072976;28;20160;-75
2021/08/19 03:17:19;;;;;;;0.47;0.47;;;15.60;99.90;;;;;;5090924;28;20231;-74
2021/08/19 03:19:45;;;;;;;0.80;0.70;;;15.50;99.90;;;;;;5072904;28;20196;-74
2021/08/19 03:22:13;;;;;;;0.70;0.70;;;15.50;99.90;;;;;;5090753;28;20160;-74
2021/08/19 03:24:41;;;;;;;0.10;0.10;;;15.70;99.90;;;;;;5072628;28;20214;-74
2021/08/19 03:27:07;;;;;;;9.48;0.47;;;15.60;99.90;;;;;;5090806;28;20614;-75
2021/08/19 03:29:34;;;;;;;0.57;0.57;;;15.40;99.90;;;;;;5072796;28;20195;-75
2021/08/19 03:32:00;;;;;;;1.63;0.82;;;15.40;99.90;;;;;;5072102;28;20219;-75
2021/08/19 03:34:27;;;;;;;0.20;0.17;;;15.70;99.90;;;;;;5090779;28;20156;-76
2021/08/19 03:36:54;;;;;;;0.43;0.43;;;15.80;99.90;;;;;;5090758;28;20182;-76
2021/08/19 03:39:23;;;;;;;0.80;0.65;;;15.90;99.90;;;;;;5090518;28;20187;-75
2021/08/19 03:41:49;;;;;;;0.75;0.70;;;15.90;99.90;;;;;;5090444;28;20152;-76
2021/08/19 03:44:16;;;;;;;0.15;0.15;;;16.10;99.90;;;;;;5090624;28;20170;-75
2021/08/19 03:46:43;;;;;;;0.10;0.10;;;16.20;99.90;;;;;;5072285;28;20228;-77
2021/08/19 03:49:09;;;;;;;0.32;0.32;;;16.30;99.90;;;;;;5083872;28;20222;-76
2021/08/19 03:51:35;;;;;;;1.08;1.00;;;16.40;99.90;;;;;;5091950;28;20175;-75
2021/08/19 03:54:01;;;;;;;0.20;0.20;;;16.20;99.90;;;;;;5110420;28;20202;-73
2021/08/19 03:56:32;;;;;;;0.90;0.70;;;16.10;99.90;;;;;;5110456;28;20159;-74
2021/08/19 03:58:58;;;;;;;0.10;0.10;;;16.10;99.90;;;;;;5110686;28;20187;-76
2021/08/19 04:01:24;;;;;;;0.38;0.38;;;16.00;99.90;;;;;;5111645;28;20175;-76
2021/08/19 04:03:51;;;;;;;0.10;0.10;;;15.90;99.90;;;;;;5112879;28;20175;-75
2021/08/19 04:06:18;;;;;;;0.10;0.10;;;16.10;99.90;;;;;;5112546;28;20160;-75
2021/08/19 04:08:44;;;;;;;0.40;0.40;;;16.10;99.90;;;;;;5110858;28;20185;-76
2021/08/19 04:11:10;;;;;;;0.43;0.40;;;15.70;99.90;;;;;;5110281;28;20219;-74
2021/08/19 04:13:39;;;;;;;0.20;0.20;;;15.90;99.90;;;;;;5110227;28;20201;-75
2021/08/19 04:16:08;;;;;;;0.30;0.30;;;15.90;99.90;;;;;;5109989;28;20160;-75
2021/08/19 04:18:34;;;;;;;0.70;0.52;;;15.80;99.90;;;;;;5091800;28;20159;-75
2021/08/19 04:21:01;;;;;;;0.10;0.10;;;15.90;99.90;;;;;;5109894;28;20219;-76
2021/08/19 04:23:27;;;;;;;0.52;0.52;;;15.70;99.90;;;;;;5091680;28;20327;-74
2021/08/19 04:25:53;;;;;;;0.50;0.50;;;15.90;99.90;;;;;;5091796;28;20163;-78
2021/08/19 04:28:19;;;;;;;0.90;0.90;;;16.10;99.90;;;;;;5091702;28;20167;-75
2021/08/19 04:30:45;;;;;;;0.20;0.20;;;16.20;99.90;;;;;;5091439;28;20258;-78
2021/08/19 04:33:11;;;;;;;0.10;0.10;;;16.30;99.90;;;;;;5091387;28;20203;-79
2021/08/19 04:35:37;;;;;;;0.88;0.52;;;16.30;99.90;;;;;;5109686;28;20160;-80
2021/08/19 04:38:03;;;;;;;0.52;0.52;;;16.00;99.90;;;;;;5091358;28;20186;-80
2021/08/19 04:40:29;;;;;;;0.20;0.20;;;15.90;99.90;;;;;;5091458;28;20195;-79
2021/08/19 04:42:54;;;;;;;0.43;0.43;;;15.70;99.90;;;;;;5110317;28;20189;-79
2021/08/19 04:45:20;;;;;;;0.30;0.30;;;15.70;99.90;;;;;;5109495;28;20191;-79
2021/08/19 04:47:46;;;;;;;0.68;0.35;;;15.60;99.90;;;;;;5110084;28;20167;-79
2021/08/19 04:50:12;;;;;;;0.70;0.68;;;15.80;99.90;;;;;;5091859;28;20210;-80
2021/08/19 04:52:38;;;;;;;3.65;0.82;;;15.90;99.90;;;;;;5110162;28;20183;-79
2021/08/19 04:55:05;;;;;;;0.35;0.35;;;16.00;99.90;;;;;;5110466;28;20158;-79
2021/08/19 04:57:31;;;;;;;0.50;0.40;;;15.90;99.90;;;;;;5092157;28;20163;-79
2021/08/19 04:59:57;;;;;;;0.20;0.20;;;15.70;99.90;;;;;;5091343;28;20191;-79
2021/08/19 05:02:23;;;;;;;0.20;0.20;;;15.60;99.90;;;;;;5080693;28;20199;-79
2021/08/19 05:04:49;;;;;;;0.38;0.38;;;15.90;99.90;;;;;;5072636;28;20168;-80
2021/08/19 05:07:15;;;;;;;0.20;0.20;;;16.30;99.90;;;;;;5071065;28;20259;-80
2021/08/19 05:09:41;;;;;;;0.82;0.50;;;16.40;99.90;;;;;;5088614;28;20207;-79
2021/08/19 05:12:08;;;;;;;0.10;0.10;;;16.30;99.90;;;;;;5088665;28;20203;-81
2021/08/19 05:14:34;;;;;;;0.20;0.20;;;16.30;99.90;;;;;;5070627;28;20509;-79
2021/08/19 05:16:59;;;;;;;0.50;0.50;;;16.50;99.90;;;;;;5102472;28;20173;-79
2021/08/19 05:19:25;;;;;;;4.07;1.23;;;16.50;99.90;;;;;;5129291;28;20186;-78
2021/08/19 05:21:51;;;;;;;0.52;0.52;;;16.30;99.90;;;;;;5110941;28;20159;-79
2021/08/19 05:24:17;;;;;;;0.32;0.32;;;16.20;99.90;;;;;;5110898;28;20163;-79
2021/08/19 05:26:43;;;;;;;0.93;0.52;;;16.20;99.90;;;;;;5111236;28;20191;-79
2021/08/19 05:29:09;;;;;;;1.30;1.27;;;16.20;99.90;;;;;;5112269;28;20191;-79
2021/08/19 05:31:35;;;;;;;0.75;0.75;;;16.30;99.90;;;;;;5130253;28;20158;-78
2021/08/19 05:34:05;;;;;;;1.67;1.58;;;16.30;99.90;;;;;;5111010;28;20261;-78
2021/08/19 05:36:32;;;;;;;0.10;0.10;;;16.40;99.90;;;;;;5129074;28;20166;-78
2021/08/19 05:38:57;;;;;;;0.70;0.68;;;16.50;99.90;;;;;;5129241;28;20151;-79
2021/08/19 05:41:23;;;;;;;0.90;0.73;;;16.60;99.90;;;;;;5110748;28;20159;-80
2021/08/19 05:43:49;;;;;;;0.10;0.10;;;16.70;99.90;;;;;;5110642;28;20162;-79
2021/08/19 05:46:15;;;;;;;0.30;0.30;;;16.80;99.90;;;;;;5110790;28;20158;-79
2021/08/19 05:48:41;;;;;;;0.63;0.57;;;16.80;99.90;;;;;;5128491;28;20262;-79
2021/08/19 05:51:09;;;;;;;0.40;0.40;;;16.80;99.90;;;;;;5128626;28;20185;-79
2021/08/19 05:53:35;;;;;;;0.22;0.22;;;16.90;99.90;;;;;;5110486;28;20198;-79
2021/08/19 05:56:01;;;;;;;1.10;1.00;;;16.70;99.90;;;;;;5132438;28;20184;-79
2021/08/19 05:58:26;;;;;;;0.57;0.57;;;16.90;99.90;;;;;;5117217;28;20162;-79
2021/08/19 06:00:52;;;;;;;1.75;1.55;;;16.90;99.90;;;;;;5116026;28;20201;-79
2021/08/19 06:03:20;;;;;;;1.35;1.02;;;17.00;99.90;;;;;;5114156;28;20175;-78
2021/08/19 06:05:47;;;;;;;1.02;0.93;;;16.90;99.90;;;;;;5115238;28;20205;-80
2021/08/19 06:08:13;;;;;;;1.23;0.93;;;16.90;99.90;;;;;;5096587;28;20163;-81
2021/08/19 06:10:39;;;;;;;0.55;0.55;;;17.10;99.90;;;;;;5096812;28;20209;-79
2021/08/19 06:13:05;;;;;;;0.35;0.35;;;17.20;99.90;;;;;;5114894;28;20207;-81
2021/08/19 06:15:31;;;;;;;1.85;1.38;;;17.50;99.90;;;;;;5115091;28;20600;-79
2021/08/19 06:17:57;;;;;;;0.60;0.60;;;17.80;99.90;;;;;;5114961;28;20177;-81
2021/08/19 06:20:23;;;;;;;1.77;1.13;;;17.90;99.90;;;;;;5096517;28;20255;-80
2021/08/19 06:22:51;;;;;;;0.77;0.47;;;17.80;99.90;;;;;;5114977;28;20156;-80
2021/08/19 06:25:17;;;;;;;0.63;0.63;;;18.00;99.90;;;;;;5114928;28;20160;-80
2021/08/19 06:27:43;;;;;;;1.55;1.17;;;18.00;99.90;;;;;;5115060;28;20163;-81
2021/08/19 06:30:10;;;;;;;1.85;1.75;;;17.80;99.90;;;;;;5115199;28;20189;-80
2021/08/19 06:32:36;;;;;;;1.48;1.25;;;17.80;99.90;;;;;;5100270;28;20210;-80
2021/08/19 06:35:02;;;;;;;0.80;0.80;;;18.00;99.90;;;;;;5117644;28;20159;-80
2021/08/19 06:37:28;;;;;;;0.50;0.50;;;18.20;99.90;;;;;;5116659;28;20314;-80
2021/08/19 06:39:54;;;;;;;6.70;1.40;;;18.30;99.90;;;;;;5114580;28;20198;-79
2021/08/19 06:42:20;;;;;;;2.10;1.17;;;18.70;99.90;;;;;;5114573;28;20178;-79
2021/08/19 06:44:46;;;;;;;0.68;0.65;;;18.90;99.90;;;;;;5114732;28;20506;-79
2021/08/19 06:47:12;;;;;;;0.30;0.30;;;18.80;99.90;;;;;;5114597;28;20171;-79
2021/08/19 06:49:40;;;;;;;0.15;0.15;;;19.00;99.90;;;;;;5095943;28;20227;-78
2021/08/19 06:52:06;;;;;;;0.22;0.22;;;19.20;99.90;;;;;;5096130;28;20194;-78
2021/08/19 06:54:32;;;;;;;3.35;0.75;;;19.10;99.90;;;;;;5096531;28;20526;-78
2021/08/19 06:57:00;;;;;;;1.25;0.77;;;19.10;99.90;;;;;;5114596;28;20158;-81
2021/08/19 06:59:27;;;;;;;3.60;1.60;;;20.20;99.90;;;;;;5096029;28;20195;-79
2021/08/19 07:01:53;;;;;;;0.70;0.68;;;21.60;99.90;;;;;;5095579;28;20171;-79
2021/08/19 07:04:19;;;;;;;0.77;0.65;;;22.60;99.90;;;;;;5114419;28;20163;-80
2021/08/19 07:06:46;;;;;;;0.68;0.68;;;23.30;99.90;;;;;;5094979;28;20163;-78
2021/08/19 07:09:13;;;;;;;3.35;0.73;;;23.20;99.90;;;;;;5111340;28;20187;-77
2021/08/19 07:11:39;;;;;;;0.43;0.43;;;23.30;99.90;;;;;;5111903;28;20159;-78
2021/08/19 07:14:05;;;;;;;5.28;0.95;;;23.70;99.90;;;;;;5111303;28;20187;-78
2021/08/19 07:16:30;;;;;;;0.77;0.77;;;24.70;99.90;;;;;;5105002;28;20549;-78
2021/08/19 07:18:56;;;;;;;1.60;1.15;;;24.30;99.90;;;;;;5131542;28;20158;-77
2021/08/19 07:21:22;;;;;;;4.95;0.95;;;23.70;99.90;;;;;;5131547;28;20169;-77
2021/08/19 07:23:48;;;;;;;3.92;0.98;;;23.10;99.90;;;;;;5131244;28;20217;-77
2021/08/19 07:26:14;;;;;;;1.92;1.73;;;23.00;99.90;;;;;;5131331;28;20154;-77
2021/08/19 07:28:40;;;;;;;0.45;0.43;;;23.30;99.90;;;;;;5113032;28;20226;-77
2021/08/19 07:31:06;;;;;;;0.47;0.47;;;23.20;99.90;;;;;;5112847;28;20677;-78
2021/08/19 07:33:32;;;;;;;0.70;0.70;;;22.20;99.90;;;;;;5131165;28;20182;-78
2021/08/19 07:35:58;;;;;;;1.27;0.77;;;22.40;99.90;;;;;;5131392;28;20161;-78
2021/08/19 07:38:24;;;;;;;0.63;0.63;;;22.10;99.90;;;;;;5131278;28;20164;-78
2021/08/19 07:40:50;;;;;;;1.00;0.40;;;21.10;99.90;;;;;;5112454;28;20193;-78
2021/08/19 07:43:16;;;;;;;3.72;0.88;;;21.30;99.90;;;;;;5131004;28;20159;-78
2021/08/19 07:45:42;;;;;;;1.10;1.08;;;21.70;99.90;;;;;;5130949;28;20162;-78
2021/08/19 07:48:13;;;;;;;2.05;1.42;;;21.10;99.90;;;;;;5112474;28;20247;-78
2021/08/19 07:50:40;;;;;;;0.85;0.75;;;21.20;99.90;;;;;;5112488;28;20347;-78
2021/08/19 07:53:06;;;;;;;2.92;0.65;;;21.40;99.90;;;;;;5130805;28;20600;-78
2021/08/19 07:55:33;;;;;;;4.10;1.00;;;21.70;99.90;;;;;;5112645;28;20258;-78
2021/08/19 07:57:59;;;;;;;0.25;0.25;;;21.60;99.90;;;;;;5131000;28;20218;-78
2021/08/19 08:00:28;;;;;;;0.68;0.68;;;21.70;99.90;;;;;;5130890;28;20197;-78
2021/08/19 08:02:54;;;;;;;2.05;0.82;;;21.80;99.90;;;;;;5130938;28;20162;-78
2021/08/19 08:05:23;;;;;;;0.57;0.57;;;21.80;99.90;;;;;;5130864;28;20230;-77
2021/08/19 08:07:50;;;;;;;0.45;0.45;;;21.70;99.90;;;;;;5130700;28;20154;-79
2021/08/19 08:10:16;;;;;;;0.65;0.63;;;22.10;99.90;;;;;;5112209;28;20560;-78
2021/08/19 08:12:43;;;;;;;0.40;0.40;;;22.90;99.90;;;;;;5112252;28;20206;-78
2021/08/19 08:15:10;;;;;;;0.90;0.90;;;23.20;99.90;;;;;;5112212;28;20170;-78
2021/08/19 08:17:38;;;;;;;11.60;1.13;;;22.50;99.90;;;;;;5112010;28;20186;-79
2021/08/19 08:20:05;;;;;;;0.20;0.20;;;22.70;99.90;;;;;;5129145;28;20178;-79
2021/08/19 08:22:31;;;;;;;0.98;0.47;;;23.10;99.90;;;;;;5130681;28;20158;-78
2021/08/19 08:24:57;;;;;;;0.43;0.40;;;23.20;99.90;;;;;;5130366;28;20173;-79
2021/08/19 08:27:23;;;;;;;1.20;0.82;;;23.60;99.90;;;;;;5130521;28;20162;-78
2021/08/19 08:29:49;;;;;;;0.68;0.68;;;23.80;99.90;;;;;;5130317;28;20190;-79
2021/08/19 08:32:16;;;;;;;2.38;1.33;;;24.00;99.90;;;;;;5130431;28;20263;-79
2021/08/19 08:34:42;;;;;;;0.50;0.50;;;23.90;99.90;;;;;;5130299;28;20627;-78
2021/08/19 08:37:08;;;;;;;0.50;0.50;;;23.90;99.90;;;;;;5111652;28;20166;-76
2021/08/19 08:39:37;;;;;;;0.95;0.88;;;23.40;99.90;;;;;;5129988;28;20193;-76
2021/08/19 08:42:06;;;;;;;0.80;0.80;;;23.50;99.90;;;;;;5111839;28;20177;-75
2021/08/19 08:44:34;;;;;;;0.63;0.63;;;23.50;99.90;;;;;;5111436;28;20169;-74
2021/08/19 08:47:00;;;;;;;0.90;0.85;;;23.80;99.90;;;;;;5111637;28;20162;-76
2021/08/19 08:49:27;;;;;;;3.33;0.95;;;23.00;99.90;;;;;;5115397;28;20254;-75
2021/08/19 08:52:00;;;;;;;0.20;0.20;;;23.40;99.90;;;;;;5091053;28;20191;-75
2021/08/19 08:54:31;;;;;;;0.45;0.45;;;23.40;99.90;;;;;;5091142;28;20162;-75
2021/08/19 08:56:58;;;;;;;0.35;0.35;;;22.60;99.90;;;;;;5109428;28;20557;-75
2021/08/19 08:59:24;;;;;;;0.57;0.57;;;23.20;99.90;;;;;;5091325;28;20248;-75
2021/08/19 09:01:50;;;;;;;1.17;1.08;;;23.40;99.90;;;;;;5091956;28;20231;-74
2021/08/19 09:04:16;;;;;;;0.50;0.50;;;23.50;99.90;;;;;;5110690;28;20175;-75
2021/08/19 09:06:44;;;;;;;5.38;1.10;;;23.60;99.90;;;;;;5092390;28;20182;-75
2021/08/19 09:09:24;;;;;;;0.73;0.73;;;23.30;99.90;;;;;;5090749;28;20159;-74
2021/08/19 09:11:56;;;;;;;1.38;0.57;;;23.60;99.90;;;;;;5090738;28;20169;-75
2021/08/19 09:14:24;;;;;;;1.70;0.63;;;23.90;99.90;;;;;;5108898;28;20151;-73
2021/08/19 09:16:52;;;;;;;0.77;0.70;;;24.30;99.90;;;;;;5090542;28;20167;-77
2021/08/19 09:19:21;;;;;;;3.50;1.27;;;24.90;99.90;;;;;;5108843;28;20182;-74
2021/08/19 09:21:47;;;;;;;2.25;1.05;;;24.70;99.90;;;;;;5090679;28;20174;-74
2021/08/19 09:24:22;;;;;;;1.05;1.00;;;24.10;99.90;;;;;;5090601;28;20167;-74
2021/08/19 09:26:50;;;;;;;0.40;0.40;;;24.60;99.90;;;;;;5108815;28;20193;-74
2021/08/19 09:29:28;;;;;;;0.43;0.43;;;25.00;99.90;;;;;;5090215;28;20195;-74
2021/08/19 09:32:07;;;;;;;0.77;0.75;;;24.30;99.90;;;;;;5089731;28;20166;-74
2021/08/19 09:34:33;;;;;;;0.73;0.50;;;23.60;99.90;;;;;;5090467;28;20167;-74
2021/08/19 09:37:03;;;;;;;0.52;0.52;;;24.00;99.90;;;;;;5108479;28;20143;-74
2021/08/19 09:39:44;;;;;;;1.30;1.20;;;24.00;99.90;;;;;;5108381;28;20191;-76
2021/08/19 09:42:14;;;;;;;1.13;0.38;;;24.50;99.90;;;;;;5090314;28;20177;-75
2021/08/19 09:44:46;;;;;;;0.50;0.47;;;25.10;99.90;;;;;;5090226;28;20262;-75
2021/08/19 09:47:34;;;;;;;0.95;0.70;;;25.10;99.90;;;;;;5108639;28;20155;-75
2021/08/19 09:50:29;;;;;;;0.38;0.38;;;24.80;99.90;;;;;;5127435;28;20217;-75
2021/08/19 09:52:55;;;;;;;2.78;0.63;;;24.60;99.90;;;;;;5045526;28;20286;-77
2021/08/19 09:55:31;;;;;;;2.80;0.82;;;24.60;99.90;;;;;;5029233;28;20169;-75
2021/08/19 09:57:59;;;;;;;1.60;1.20;;;24.90;99.90;;;;;;5029279;28;20177;-76
2021/08/19 10:00:42;;;;;;;2.22;0.73;;;25.10;99.90;;;;;;5029193;28;20192;-75
2021/08/19 10:03:14;;;;;;;1.13;1.10;;;24.60;99.90;;;;;;5029401;28;20208;-78
2021/08/19 10:05:40;;;;;;;0.10;0.10;;;23.60;99.90;;;;;;5029291;28;20172;-78
2021/08/19 10:08:10;;;;;;;1.75;0.43;;;23.70;99.90;;;;;;5046024;28;20183;-78
2021/08/19 10:10:38;;;;;;;0.30;0.30;;;24.60;99.90;;;;;;5028914;28;20209;-74
2021/08/19 10:13:04;;;;;;;2.53;0.73;;;24.80;99.90;;;;;;5029011;28;20319;-75
2021/08/19 10:15:36;;;;;;;0.38;0.38;;;24.90;99.90;;;;;;5045772;28;20164;-76
2021/08/19 10:18:06;;;;;;;0.10;0.10;;;25.00;99.90;;;;;;5045710;28;20157;-76
2021/08/19 10:20:37;;;;;;;1.02;0.98;;;25.30;99.90;;;;;;5028765;28;20586;-75
2021/08/19 10:23:04;;;;;;;0.35;0.35;;;26.60;99.90;;;;;;5045686;28;20199;-75
2021/08/19 10:25:30;;;;;;;0.28;0.28;;;26.40;99.90;;;;;;5029170;28;20169;-76
2021/08/19 10:28:16;;;;;;;0.20;0.20;;;26.80;99.90;;;;;;5028826;28;20195;-76
2021/08/19 10:30:58;;;;;;;0.35;0.20;;;27.60;99.90;;;;;;5110105;28;20232;-77
2021/08/19 10:33:35;;;;;;;1.02;0.70;;;26.90;99.90;;;;;;5128328;28;20182;-75
2021/08/19 10:36:45;;;;;;;0.38;0.38;;;26.70;99.90;;;;;;5109987;28;20162;-75
2021/08/19 10:39:20;;;;;;;2.75;0.88;;;28.00;99.90;;;;;;5090353;28;20269;-76
2021/08/19 10:41:51;;;;;;;0.65;0.38;;;28.40;99.90;;;;;;5128287;28;20171;-74
2021/08/19 10:44:18;;;;;;;0.80;0.80;;;28.60;99.90;;;;;;5113583;28;20165;-74
2021/08/19 10:46:51;;;;;;;0.70;0.70;;;27.10;99.90;;;;;;5113729;28;20162;-74
2021/08/19 10:49:32;;;;;;;1.00;0.32;;;26.50;99.90;;;;;;5100402;28;20256;-74
2021/08/19 10:52:07;;;;;;;0.90;0.30;;;26.30;99.90;;;;;;5093144;28;20155;-74
2021/08/19 10:54:35;;;;;;;0.30;0.30;;;26.90;99.90;;;;;;5093343;28;20502;-77
2021/08/19 10:57:19;;;;;;;0.32;0.32;;;26.50;99.90;;;;;;5111491;28;20155;-73
2021/08/19 11:00:13;;;;;;;0.30;0.30;;;26.10;99.90;;;;;;5111374;28;20210;-73
2021/08/19 11:02:51;;;;;;;0.30;0.30;;;26.30;99.90;;;;;;5093144;28;20162;-74
2021/08/19 11:05:26;;;;;;;0.55;0.28;;;26.50;99.90;;;;;;5111304;28;20158;-75
2021/08/19 11:07:53;;;;;;;15.77;0.70;;;26.30;99.90;;;;;;5111172;28;20196;-75
2021/08/19 11:10:30;;;;;;;0.10;0.10;;;26.10;99.90;;;;;;5093061;28;20333;-74
2021/08/19 11:13:10;;;;;;;0.17;0.13;;;27.10;99.90;;;;;;5111151;28;20245;-75
2021/08/19 11:15:46;;;;;;;1.67;1.58;;;27.70;99.90;;;;;;5111135;28;20162;-75
2021/08/19 11:18:27;;;;;;;0.80;0.57;;;27.30;99.90;;;;;;5092644;28;20190;-75
2021/08/19 11:20:53;;;;;;;0.25;0.25;;;27.20;99.90;;;;;;5092885;28;20169;-75
2021/08/19 11:23:29;;;;;;;0.47;0.47;;;26.70;99.90;;;;;;5092689;28;20163;-75
2021/08/19 11:26:11;;;;;;;1.30;0.55;;;25.60;99.90;;;;;;5111139;28;20218;-75
2021/08/19 11:28:39;;;;;;;0.50;0.50;;;25.00;99.90;;;;;;5092726;28;20204;-76
2021/08/19 11:31:11;;;;;;;0.30;0.30;;;25.60;99.90;;;;;;5094001;28;20186;-75
2021/08/19 11:33:39;;;;;;;0.68;0.40;;;26.90;99.90;;;;;;5112503;28;20179;-75
2021/08/19 11:36:06;;;;;;;0.65;0.35;;;27.90;99.90;;;;;;5111774;28;20179;-74
2021/08/19 11:38:33;;;;;;;1.23;0.30;;;28.80;99.90;;;;;;5110490;28;20282;-74
2021/08/19 11:41:21;;;;;;;3.08;0.32;;;28.50;99.90;;;;;;5092400;28;20189;-74
2021/08/19 11:43:48;;;;;;;0.30;0.30;;;27.80;99.90;;;;;;5110708;28;20523;-77
2021/08/19 11:46:24;;;;;;;0.45;0.30;;;27.40;99.90;;;;;;5110652;28;20170;-74
2021/08/19 11:49:13;;;;;;;0.65;0.30;;;26.70;99.90;;;;;;5110355;28;20214;-75
2021/08/19 11:51:43;;;;;;;0.98;0.80;;;26.90;99.90;;;;;;5102298;28;20187;-74
2021/08/19 11:54:12;;;;;;;0.20;0.20;;;26.50;99.90;;;;;;5110055;28;20273;-75
2021/08/19 11:56:40;;;;;;;0.45;0.35;;;26.40;99.90;;;;;;5110149;28;20182;-76
2021/08/19 11:59:09;;;;;;;0.20;0.20;;;26.20;99.90;;;;;;5110241;28;20151;-76
2021/08/19 12:01:37;;;;;;;1.17;0.77;;;26.20;99.90;;;;;;5110221;28;20155;-74
2021/08/19 12:04:05;;;;;;;0.20;0.20;;;26.20;99.90;;;;;;5110035;28;20159;-73
2021/08/19 12:06:34;;;;;;;3.83;0.63;;;26.30;99.90;;;;;;5110168;28;20590;-74
2021/08/19 12:09:06;;;;;;;0.75;0.75;;;26.10;99.90;;;;;;5110167;28;20159;-75
2021/08/19 12:11:36;;;;;;;1.45;0.55;;;26.10;99.90;;;;;;5110097;28;20170;-75
2021/08/19 12:14:03;;;;;;;0.47;0.43;;;25.80;99.90;;;;;;5091589;28;20205;-75
2021/08/19 12:16:30;;;;;;;0.20;0.20;;;26.40;99.90;;;;;;5091747;28;20173;-74
2021/08/19 12:19:15;;;;;;;1.90;0.47;;;26.20;99.90;;;;;;5091374;28;20263;-77
2021/08/19 12:22:02;;;;;;;0.52;0.28;;;26.50;99.90;;;;;;5109244;28;20173;-74
2021/08/19 12:24:42;;;;;;;0.47;0.47;;;26.30;99.90;;;;;;5091484;28;20166;-74
2021/08/19 12:27:11;;;;;;;0.30;0.30;;;26.10;99.90;;;;;;5109651;28;20190;-74
2021/08/19 12:29:47;;;;;;;0.10;0.10;;;26.20;99.90;;;;;;5109726;28;20163;-73
2021/08/19 12:32:30;;;;;;;0.52;0.52;;;26.20;99.90;;;;;;5109462;28;20185;-74
2021/08/19 12:35:06;;;;;;;0.43;0.40;;;25.80;99.90;;;;;;5109603;28;20226;-74
2021/08/19 12:37:34;;;;;;;0.32;0.32;;;26.00;99.90;;;;;;5109542;28;20190;-73
2021/08/19 12:40:13;;;;;;;5.75;0.95;;;25.60;99.90;;;;;;5109613;28;20154;-74
2021/08/19 12:42:41;;;;;;;0.15;0.15;;;25.60;99.90;;;;;;5091028;28;20621;-75
2021/08/19 12:45:10;;;;;;;0.15;0.13;;;25.60;99.90;;;;;;5091085;28;20242;-74
2021/08/19 12:47:45;;;;;;;0.20;0.20;;;26.30;99.90;;;;;;5109087;28;20229;-73
2021/08/19 12:50:19;;;;;;;0.45;0.45;;;26.10;99.90;;;;;;5111450;28;20216;-74
2021/08/19 12:52:46;;;;;;;0.25;0.25;;;26.10;99.90;;;;;;5107823;28;20194;-75